createdAt,value
2019-03-05T00:02:03.883Z,93.60
2019-03-05T00:04:33.149Z,93.60
2019-03-05T00:07:02.267Z,93.70
2019-03-05T00:09:31.313Z,93.60
2019-03-05T00:12:00.525Z,93.70
2019-03-05T00:14:29.605Z,93.80
2019-03-05T00:16:58.687Z,94.10
2019-03-05T00:19:27.797Z,93.90
2019-03-05T00:21:57.010Z,94.20
2019-03-05T00:25:00.517Z,94.00
2019-03-05T00:27:30.809Z,94.50
2019-03-05T00:30:32.933Z,94.20
2019-03-05T00:33:07.555Z,94.30
2019-03-05T00:35:58.926Z,94.30
2019-03-05T00:38:36.885Z,94.50
2019-03-05T00:41:18.251Z,94.40
2019-03-05T00:43:55.995Z,94.50
2019-03-05T00:46:39.932Z,94.60
2019-03-05T00:49:17.978Z,94.70
2019-03-05T00:52:05.275Z,94.60
2019-03-05T00:54:42.980Z,94.60
2019-03-05T00:57:18.065Z,94.30
2019-03-05T00:59:55.858Z,94.70
2019-03-05T01:02:40.040Z,94.50
2019-03-05T01:05:45.956Z,94.50
2019-03-05T01:08:15.385Z,94.50
2019-03-05T01:10:44.474Z,94.40
2019-03-05T01:13:13.643Z,94.40
2019-03-05T01:15:42.740Z,94.40
2019-03-05T01:18:11.885Z,94.50
2019-03-05T01:20:40.892Z,94.30
2019-03-05T01:23:09.934Z,94.00
2019-03-05T01:25:39.264Z,93.80
2019-03-05T01:28:08.265Z,93.50
2019-03-05T01:30:45.623Z,93.40
2019-03-05T01:33:16.215Z,93.10
2019-03-05T01:35:52.902Z,93.00
2019-03-05T01:38:22.028Z,92.80
2019-03-05T01:40:52.784Z,92.80
2019-03-05T01:43:21.816Z,92.60
2019-03-05T01:45:50.987Z,92.50
2019-03-05T01:48:20.254Z,92.30
2019-03-05T01:50:49.304Z,92.40
2019-03-05T01:53:18.268Z,92.40
2019-03-05T01:55:47.374Z,92.20
2019-03-05T01:58:16.450Z,92.10
2019-03-05T02:00:45.407Z,92.00
2019-03-05T02:03:14.615Z,92.00
2019-03-05T02:05:43.986Z,91.90
2019-03-05T02:08:13.054Z,91.80
2019-03-05T02:10:42.270Z,91.70
2019-03-05T02:13:11.491Z,91.80
2019-03-05T02:15:40.521Z,91.80
2019-03-05T02:18:11.440Z,91.70
2019-03-05T02:20:40.616Z,91.60
2019-03-05T02:23:12.960Z,91.60
2019-03-05T02:25:56.957Z,91.60
2019-03-05T02:28:28.972Z,91.60
2019-03-05T02:31:12.594Z,91.70
2019-03-05T02:34:08.929Z,91.80
2019-03-05T02:36:49.456Z,91.50
2019-03-05T02:39:55.937Z,91.50
2019-03-05T02:42:44.535Z,91.50
2019-03-05T02:45:31.443Z,91.60
2019-03-05T02:48:10.891Z,91.80
2019-03-05T02:50:54.815Z,91.80
2019-03-05T02:53:48.446Z,92.50
2019-03-05T02:56:42.967Z,92.70
2019-03-05T02:59:10.848Z,92.60
2019-03-05T03:01:41.517Z,92.90
2019-03-05T03:04:12.224Z,93.60
2019-03-05T03:06:41.282Z,93.90
2019-03-05T03:09:25.125Z,94.20
2019-03-05T03:11:54.170Z,94.30
2019-03-05T03:14:23.403Z,94.60
2019-03-05T03:16:52.844Z,94.60
2019-03-05T03:19:21.852Z,94.60
2019-03-05T03:21:50.816Z,94.70
2019-03-05T03:24:19.838Z,94.60
2019-03-05T03:26:48.781Z,94.40
2019-03-05T03:29:17.841Z,94.10
2019-03-05T03:31:47.042Z,94.20
2019-03-05T03:34:16.339Z,93.70
2019-03-05T03:36:45.571Z,93.80
2019-03-05T03:39:14.822Z,93.70
2019-03-05T03:41:43.784Z,93.80
2019-03-05T03:44:12.890Z,93.60
2019-03-05T03:46:41.826Z,93.70
2019-03-05T03:49:10.787Z,93.50
2019-03-05T03:51:39.730Z,93.70
2019-03-05T03:54:08.843Z,93.80
2019-03-05T03:56:38.074Z,94.00
2019-03-05T03:59:07.191Z,94.00
2019-03-05T04:01:36.197Z,94.50
2019-03-05T04:04:05.184Z,94.50
2019-03-05T04:06:34.282Z,94.50
2019-03-05T04:09:04.819Z,94.40
2019-03-05T04:11:33.762Z,94.30
2019-03-05T04:14:04.399Z,94.10
2019-03-05T04:16:33.759Z,94.20
2019-03-05T04:19:04.348Z,94.20
2019-03-05T04:21:33.453Z,94.20
2019-03-05T04:24:02.666Z,94.60
2019-03-05T04:26:31.624Z,94.70
2019-03-05T04:29:00.597Z,94.70
2019-03-05T04:31:29.596Z,94.70
2019-03-05T04:33:58.698Z,94.60
2019-03-05T04:36:27.930Z,94.70
2019-03-05T04:38:56.982Z,94.80
2019-03-05T04:41:25.954Z,94.70
2019-03-05T04:43:55.116Z,94.70
2019-03-05T04:46:31.995Z,94.80
2019-03-05T04:49:19.407Z,95.00
2019-03-05T04:51:55.945Z,94.90
2019-03-05T04:54:25.273Z,94.90
2019-03-05T04:56:54.285Z,95.10
2019-03-05T04:59:23.456Z,95.00
2019-03-05T05:01:52.836Z,95.00
2019-03-05T05:04:21.848Z,95.10
2019-03-05T05:06:50.899Z,95.10
2019-03-05T05:09:19.863Z,95.10
2019-03-05T05:11:48.988Z,95.10
2019-03-05T05:14:18.050Z,95.20
2019-03-05T05:16:47.179Z,95.20
2019-03-05T05:19:16.161Z,95.10
2019-03-05T05:21:45.330Z,95.20
2019-03-05T05:24:14.468Z,95.30
2019-03-05T05:26:44.410Z,95.30
2019-03-05T05:29:13.343Z,95.30
2019-03-05T05:31:42.336Z,95.20
2019-03-05T05:34:11.663Z,95.30
2019-03-05T05:36:40.658Z,95.10
2019-03-05T05:39:12.686Z,95.20
2019-03-05T05:41:41.710Z,95.10
2019-03-05T05:44:10.862Z,95.20
2019-03-05T05:46:39.921Z,95.10
2019-03-05T05:49:08.865Z,95.10
2019-03-05T05:51:37.869Z,95.10
2019-03-05T05:54:07.039Z,95.10
2019-03-05T05:56:36.003Z,95.10
2019-03-05T05:59:05.010Z,95.00
2019-03-05T06:01:33.980Z,94.80
2019-03-05T06:04:02.909Z,94.80
2019-03-05T06:06:32.020Z,94.80
2019-03-05T06:09:01.263Z,94.70
2019-03-05T06:11:30.397Z,94.70
2019-03-05T06:13:59.642Z,94.60
2019-03-05T06:16:28.945Z,94.70
2019-03-05T06:18:57.997Z,94.50
2019-03-05T06:21:27.203Z,94.50
2019-03-05T06:23:56.183Z,94.60
2019-03-05T06:26:25.498Z,94.60
2019-03-05T06:28:54.497Z,94.60
2019-03-05T06:31:23.729Z,94.50
2019-03-05T06:33:52.824Z,94.40
2019-03-05T06:36:21.917Z,94.30
2019-03-05T06:38:50.892Z,94.20
2019-03-05T06:41:20.112Z,94.10
2019-03-05T06:43:49.306Z,94.00
2019-03-05T06:46:18.388Z,94.00
2019-03-05T06:48:47.380Z,93.80
2019-03-05T06:51:16.333Z,93.90
2019-03-05T06:53:46.124Z,93.70
2019-03-05T06:56:17.081Z,93.60
2019-03-05T06:58:46.173Z,93.50
2019-03-05T07:01:16.834Z,93.50
2019-03-05T07:03:46.064Z,93.30
2019-03-05T07:06:39.443Z,93.00
2019-03-05T07:09:11.494Z,93.10
2019-03-05T07:12:01.446Z,92.90
2019-03-05T07:14:36.386Z,92.70
2019-03-05T07:17:28.149Z,92.70
2019-03-05T07:20:25.462Z,92.90
2019-03-05T07:23:19.800Z,91.60
2019-03-05T07:25:48.875Z,91.40
2019-03-05T07:28:17.882Z,90.80
2019-03-05T07:30:48.755Z,90.70
2019-03-05T07:33:18.065Z,90.70
2019-03-05T07:35:47.312Z,90.50
2019-03-05T07:38:20.329Z,90.50
2019-03-05T07:40:51.231Z,90.30
2019-03-05T07:43:20.492Z,90.50
2019-03-05T07:45:49.639Z,90.50
2019-03-05T07:48:18.737Z,90.00
2019-03-05T07:50:47.725Z,90.10
2019-03-05T07:53:16.683Z,90.00
2019-03-05T07:55:45.870Z,90.10
2019-03-05T07:58:14.834Z,90.10
2019-03-05T08:00:46.465Z,89.90
2019-03-05T08:03:16.926Z,90.10
2019-03-05T08:05:47.570Z,89.30
2019-03-05T08:08:53.127Z,89.20
2019-03-05T08:11:22.344Z,88.70
2019-03-05T08:14:28.056Z,87.90
2019-03-05T08:16:57.455Z,88.00
2019-03-05T08:19:26.396Z,87.40
2019-03-05T08:21:55.490Z,87.20
2019-03-05T08:24:24.508Z,86.40
2019-03-05T08:26:53.697Z,85.00
2019-03-05T08:29:22.823Z,85.90
2019-03-05T08:31:52.164Z,85.70
2019-03-05T08:34:21.273Z,84.30
2019-03-05T08:36:50.241Z,84.80
2019-03-05T08:39:19.393Z,84.30
2019-03-05T08:41:48.454Z,83.90
2019-03-05T08:44:17.852Z,83.10
2019-03-05T08:46:46.919Z,82.30
2019-03-05T08:49:17.947Z,82.80
2019-03-05T08:51:46.790Z,83.30
2019-03-05T08:54:26.001Z,83.70
2019-03-05T08:56:54.978Z,82.10
2019-03-05T08:59:25.260Z,80.60
2019-03-05T09:01:54.360Z,80.10
2019-03-05T09:04:23.500Z,80.60
2019-03-05T09:06:52.439Z,80.70
2019-03-05T09:09:21.421Z,78.20
2019-03-05T09:11:50.777Z,76.50
2019-03-05T09:14:19.817Z,76.00
2019-03-05T09:16:48.758Z,71.70
2019-03-05T09:19:17.908Z,72.50
2019-03-05T09:21:49.098Z,70.40
2019-03-05T09:24:17.525Z,72.60
2019-03-05T09:26:51.173Z,74.10
2019-03-05T09:29:20.261Z,72.70
2019-03-05T09:31:51.457Z,70.60
2019-03-05T09:34:20.587Z,67.20
2019-03-05T09:36:51.156Z,67.90
2019-03-05T09:39:23.064Z,68.10
2019-03-05T09:41:50.919Z,68.50
2019-03-05T09:44:20.042Z,65.60
2019-03-05T09:46:48.987Z,66.80
2019-03-05T09:49:19.888Z,63.40
2019-03-05T09:51:48.809Z,63.20
2019-03-05T09:54:18.041Z,61.10
2019-03-05T09:56:47.059Z,64.00
2019-03-05T09:59:16.136Z,65.10
2019-03-05T10:01:47.127Z,64.40
2019-03-05T10:04:16.096Z,62.80
2019-03-05T10:06:45.137Z,61.30
2019-03-05T10:09:14.148Z,61.40
2019-03-05T10:11:43.186Z,59.30
2019-03-05T10:14:12.201Z,59.00
2019-03-05T10:16:42.857Z,59.20
2019-03-05T10:19:12.163Z,58.30
2019-03-05T10:21:46.224Z,57.60
2019-03-05T10:24:12.186Z,56.00
2019-03-05T10:26:41.418Z,57.20
2019-03-05T10:29:10.421Z,55.00
2019-03-05T10:31:39.769Z,55.90
2019-03-05T10:34:08.806Z,55.30
2019-03-05T10:36:37.977Z,54.90
2019-03-05T10:39:30.034Z,53.80
2019-03-05T10:41:52.785Z,55.00
2019-03-05T10:44:21.837Z,55.80
2019-03-05T10:46:51.156Z,56.10
2019-03-05T10:49:20.471Z,55.30
2019-03-05T10:51:49.971Z,56.10
2019-03-05T10:54:18.942Z,56.40
2019-03-05T10:56:48.008Z,55.90
2019-03-05T10:59:17.164Z,57.00
2019-03-05T11:01:48.301Z,56.80
2019-03-05T11:04:17.517Z,55.60
2019-03-05T11:06:46.547Z,55.70
2019-03-05T11:09:18.701Z,56.20
2019-03-05T11:11:47.810Z,55.20
2019-03-05T11:14:16.924Z,54.60
2019-03-05T11:16:46.096Z,54.90
2019-03-05T11:19:15.086Z,55.00
2019-03-05T11:21:44.368Z,54.10
2019-03-05T11:24:13.548Z,54.90
2019-03-05T11:26:44.071Z,54.70
2019-03-05T11:29:13.322Z,55.40
2019-03-05T11:31:42.263Z,54.20
2019-03-05T11:34:13.248Z,54.10
2019-03-05T11:36:42.340Z,53.00
2019-03-05T11:39:11.628Z,53.00
2019-03-05T11:41:40.848Z,53.00
2019-03-05T11:44:10.057Z,52.70
2019-03-05T11:46:39.081Z,52.60
2019-03-05T11:49:08.152Z,51.20
2019-03-05T11:51:40.572Z,51.70
2019-03-05T11:54:09.710Z,51.10
2019-03-05T11:56:40.269Z,49.80
2019-03-05T11:59:09.336Z,49.40
2019-03-05T12:01:38.349Z,49.70
2019-03-05T12:04:07.406Z,50.90
2019-03-05T12:06:37.091Z,50.20
2019-03-05T12:09:07.685Z,50.50
2019-03-05T12:11:36.627Z,49.50
2019-03-05T12:14:05.745Z,50.50
2019-03-05T12:16:34.752Z,49.30
2019-03-05T12:19:04.107Z,49.90
2019-03-05T12:21:33.198Z,49.90
2019-03-05T12:24:02.600Z,50.20
2019-03-05T12:26:31.815Z,50.20
2019-03-05T12:29:00.821Z,50.90
2019-03-05T12:31:30.104Z,51.20
2019-03-05T12:33:59.265Z,51.90
2019-03-05T12:36:28.483Z,50.90
2019-03-05T12:38:57.523Z,50.60
2019-03-05T12:41:26.555Z,51.00
2019-03-05T12:43:55.547Z,52.10
2019-03-05T12:46:24.501Z,51.80
2019-03-05T12:48:53.629Z,51.70
2019-03-05T12:51:22.841Z,51.70
2019-03-05T12:53:52.052Z,51.50
2019-03-05T12:56:24.092Z,51.80
2019-03-05T12:58:52.123Z,51.60
2019-03-05T13:01:21.236Z,51.50
2019-03-05T13:03:50.232Z,50.50
2019-03-05T13:06:19.289Z,51.80
2019-03-05T13:08:48.232Z,50.50
2019-03-05T13:11:17.920Z,50.00
2019-03-05T13:13:47.560Z,50.50
2019-03-05T13:16:18.057Z,50.00
2019-03-05T13:18:47.310Z,50.30
2019-03-05T13:21:18.298Z,50.10
2019-03-05T13:23:47.356Z,50.00
2019-03-05T13:26:16.373Z,50.10
2019-03-05T13:28:45.379Z,50.20
2019-03-05T13:31:14.398Z,49.30
2019-03-05T13:33:43.373Z,49.10
2019-03-05T13:36:13.538Z,47.50
2019-03-05T13:38:45.187Z,47.10
2019-03-05T13:41:15.616Z,47.30
2019-03-05T13:43:44.264Z,47.90
2019-03-05T13:46:13.408Z,47.70
2019-03-05T13:48:58.367Z,47.10
2019-03-05T13:51:36.731Z,48.00
2019-03-05T13:54:36.680Z,47.90
2019-03-05T13:57:25.020Z,48.50
2019-03-05T13:59:54.202Z,47.50
2019-03-05T14:02:28.410Z,47.90
2019-03-05T14:05:12.593Z,47.90
2019-03-05T14:08:07.369Z,47.90
2019-03-05T14:10:36.465Z,47.90
2019-03-05T14:13:05.665Z,48.80
2019-03-05T14:15:35.056Z,48.50
2019-03-05T14:18:04.861Z,48.40
2019-03-05T14:20:35.160Z,48.90
2019-03-05T14:23:04.500Z,48.60
2019-03-05T14:25:33.853Z,49.20
2019-03-05T14:28:02.996Z,49.10
2019-03-05T14:30:32.103Z,49.10
2019-03-05T14:33:01.076Z,48.90
2019-03-05T14:35:30.346Z,49.50
2019-03-05T14:38:01.556Z,48.40
2019-03-05T14:40:31.038Z,48.70
2019-03-05T14:43:00.534Z,47.90
2019-03-05T14:45:31.647Z,47.00
2019-03-05T14:48:04.172Z,47.10
2019-03-05T14:50:32.433Z,47.50
2019-03-05T14:53:01.744Z,47.70
2019-03-05T14:55:30.832Z,47.30
2019-03-05T14:57:59.970Z,47.00
2019-03-05T15:00:28.971Z,47.50
2019-03-05T15:02:58.088Z,47.90
2019-03-05T15:05:30.275Z,48.10
2019-03-05T15:07:59.322Z,48.60
2019-03-05T15:10:28.736Z,47.80
2019-03-05T15:12:57.756Z,47.60
2019-03-05T15:15:29.397Z,48.30
2019-03-05T15:17:58.518Z,48.30
2019-03-05T15:20:27.629Z,48.40
2019-03-05T15:22:56.781Z,48.00
2019-03-05T15:25:25.847Z,48.60
2019-03-05T15:27:55.057Z,49.00
2019-03-05T15:30:28.773Z,48.50
2019-03-05T15:32:56.864Z,48.60
2019-03-05T15:35:26.072Z,48.70
2019-03-05T15:37:55.423Z,48.90
2019-03-05T15:40:24.542Z,48.60
2019-03-05T15:42:53.935Z,48.30
2019-03-05T15:45:23.807Z,48.60
2019-03-05T15:47:52.868Z,48.30
2019-03-05T15:50:31.633Z,48.20
2019-03-05T15:53:00.815Z,48.30
2019-03-05T15:55:30.049Z,48.00
2019-03-05T15:57:59.013Z,48.20
2019-03-05T16:00:31.766Z,48.60
2019-03-05T16:03:01.396Z,47.80
2019-03-05T16:05:30.526Z,47.90
2019-03-05T16:08:01.083Z,47.90
2019-03-05T16:10:30.656Z,48.40
2019-03-05T16:12:59.751Z,48.50
2019-03-05T16:15:28.809Z,48.10
2019-03-05T16:18:01.318Z,48.20
2019-03-05T16:20:29.767Z,48.50
2019-03-05T16:22:58.993Z,48.80
2019-03-05T16:25:28.070Z,48.90
2019-03-05T16:27:57.090Z,49.00
2019-03-05T16:30:48.636Z,49.10
2019-03-05T16:33:23.722Z,49.20
2019-03-05T16:36:12.957Z,49.40
2019-03-05T16:39:04.453Z,49.60
2019-03-05T16:41:53.441Z,49.90
2019-03-05T16:44:23.758Z,50.10
2019-03-05T16:46:56.878Z,50.00
2019-03-05T16:49:27.765Z,50.20
2019-03-05T16:51:58.449Z,50.30
2019-03-05T16:54:43.697Z,50.10
2019-03-05T16:57:23.100Z,50.60
2019-03-05T17:00:09.629Z,50.90
2019-03-05T17:02:43.577Z,50.80
2019-03-05T17:05:19.667Z,51.00
2019-03-05T17:07:50.322Z,51.30
2019-03-05T17:10:30.265Z,51.40
2019-03-05T17:12:59.417Z,51.40
2019-03-05T17:15:28.516Z,51.60
2019-03-05T17:17:57.766Z,51.80
2019-03-05T17:20:26.859Z,52.00
2019-03-05T17:22:55.993Z,52.10
2019-03-05T17:25:25.506Z,51.90
2019-03-05T17:27:54.608Z,52.30
2019-03-05T17:30:24.026Z,52.40
2019-03-05T17:32:53.110Z,52.50
2019-03-05T17:35:22.365Z,52.60
2019-03-05T17:37:51.588Z,52.20
2019-03-05T17:40:20.788Z,52.50
2019-03-05T17:42:50.244Z,52.80
2019-03-05T17:45:24.195Z,52.70
2019-03-05T17:47:53.592Z,52.70
2019-03-05T17:50:22.607Z,52.70
2019-03-05T17:52:51.591Z,52.90
2019-03-05T17:55:24.694Z,53.30
2019-03-05T17:57:54.207Z,53.50
2019-03-05T18:00:25.840Z,53.30
2019-03-05T18:02:54.960Z,53.30
2019-03-05T18:05:24.042Z,53.40
2019-03-05T18:07:53.232Z,53.10
2019-03-05T18:10:22.590Z,53.50
2019-03-05T18:12:51.632Z,53.30
2019-03-05T18:15:20.808Z,52.80
2019-03-05T18:17:49.890Z,53.00
2019-03-05T18:20:21.250Z,53.10
2019-03-05T18:22:50.829Z,53.10
2019-03-05T18:25:20.248Z,52.90
2019-03-05T18:27:49.378Z,52.80
2019-03-05T18:30:33.577Z,52.90
2019-03-05T18:33:02.623Z,52.90
2019-03-05T18:35:31.996Z,52.90
2019-03-05T18:38:01.030Z,53.50
2019-03-05T18:40:30.045Z,52.90
2019-03-05T18:42:59.322Z,52.60
2019-03-05T18:45:30.827Z,53.00
2019-03-05T18:48:00.073Z,52.90
2019-03-05T18:50:29.387Z,52.80
2019-03-05T18:52:59.671Z,52.60
2019-03-05T18:55:29.172Z,52.90
2019-03-05T18:57:58.191Z,53.30
2019-03-05T19:00:29.667Z,53.30
2019-03-05T19:03:13.142Z,53.30
2019-03-05T19:05:42.225Z,53.50
2019-03-05T19:08:11.360Z,54.00
2019-03-05T19:10:40.580Z,53.80
2019-03-05T19:13:09.519Z,54.00
2019-03-05T19:15:38.635Z,54.10
2019-03-05T19:18:08.287Z,54.10
2019-03-05T19:20:37.481Z,54.30
2019-03-05T19:23:06.618Z,54.70
2019-03-05T19:25:38.066Z,54.80
2019-03-05T19:28:07.419Z,54.90
2019-03-05T19:30:45.175Z,54.90
2019-03-05T19:33:14.321Z,55.10
2019-03-05T19:35:43.467Z,55.20
2019-03-05T19:38:12.504Z,55.30
2019-03-05T19:40:46.652Z,55.40
2019-03-05T19:43:15.677Z,55.90
2019-03-05T19:45:44.671Z,55.80
2019-03-05T19:48:13.764Z,55.80
2019-03-05T19:50:43.232Z,55.90
2019-03-05T19:53:12.322Z,55.80
2019-03-05T19:55:41.394Z,56.80
2019-03-05T19:58:14.151Z,56.10
2019-03-05T20:01:02.776Z,56.10
2019-03-05T20:03:31.984Z,56.40
2019-03-05T20:06:01.472Z,56.40
2019-03-05T20:08:39.447Z,56.90
2019-03-05T20:11:01.561Z,57.30
2019-03-05T20:13:30.996Z,57.50
2019-03-05T20:16:00.062Z,57.70
2019-03-05T20:18:29.141Z,57.60
2019-03-05T20:20:58.281Z,57.60
2019-03-05T20:23:27.321Z,57.80
2019-03-05T20:25:56.995Z,57.60
2019-03-05T20:28:26.273Z,57.70
2019-03-05T20:30:55.435Z,57.70
2019-03-05T20:33:24.547Z,58.10
2019-03-05T20:35:53.802Z,58.20
2019-03-05T20:38:23.189Z,58.60
2019-03-05T20:41:25.906Z,59.00
2019-03-05T20:43:55.045Z,58.80
2019-03-05T20:46:24.027Z,58.80
2019-03-05T20:48:53.190Z,59.00
2019-03-05T20:51:22.328Z,58.70
2019-03-05T20:53:51.859Z,59.00
2019-03-05T20:56:20.875Z,59.10
2019-03-05T20:58:50.207Z,59.80
2019-03-05T21:01:19.377Z,60.50
2019-03-05T21:03:48.558Z,60.60
2019-03-05T21:06:17.648Z,60.30
2019-03-05T21:08:48.288Z,60.40
2019-03-05T21:11:17.321Z,60.10
2019-03-05T21:13:46.603Z,61.00
2019-03-05T21:16:15.744Z,61.00
2019-03-05T21:18:45.057Z,62.10
2019-03-05T21:21:14.097Z,62.50
2019-03-05T21:23:43.133Z,62.00
2019-03-05T21:26:12.160Z,61.70
2019-03-05T21:28:41.205Z,61.20
2019-03-05T21:31:10.537Z,62.20
2019-03-05T21:33:39.503Z,61.50
2019-03-05T21:36:08.437Z,61.20
2019-03-05T21:38:37.481Z,60.80
2019-03-05T21:41:06.581Z,60.70
2019-03-05T21:43:35.555Z,60.30
2019-03-05T21:46:10.485Z,60.50
2019-03-05T21:48:39.552Z,61.40
2019-03-05T21:51:08.494Z,61.10
2019-03-05T21:53:37.677Z,61.70
2019-03-05T21:56:06.841Z,61.30
2019-03-05T21:58:36.031Z,61.00
2019-03-05T22:01:05.347Z,61.20
2019-03-05T22:03:34.385Z,61.20
2019-03-05T22:06:03.848Z,62.30
2019-03-05T22:08:32.773Z,61.70
2019-03-05T22:11:01.728Z,63.20
2019-03-05T22:13:30.742Z,62.70
2019-03-05T22:16:00.038Z,63.90
2019-03-05T22:18:29.754Z,64.40
2019-03-05T22:20:59.009Z,65.70
2019-03-05T22:23:27.956Z,66.00
2019-03-05T22:25:57.144Z,66.50
2019-03-05T22:28:26.168Z,67.60
2019-03-05T22:30:55.500Z,68.10
2019-03-05T22:33:24.626Z,69.00
2019-03-05T22:35:54.312Z,68.40
2019-03-05T22:38:23.263Z,67.90
2019-03-05T22:40:52.396Z,68.10
2019-03-05T22:43:21.521Z,69.20
2019-03-05T22:45:50.632Z,70.00
2019-03-05T22:48:19.638Z,70.90
2019-03-05T22:50:48.677Z,71.10
2019-03-05T22:53:17.664Z,72.60
2019-03-05T22:55:46.637Z,73.20
2019-03-05T22:58:15.584Z,74.40
2019-03-05T23:24:24.259Z,73.00
2019-03-05T23:26:53.471Z,74.10
2019-03-05T23:29:24.322Z,74.90
2019-03-05T23:31:53.453Z,76.10
2019-03-05T23:34:22.755Z,76.40
2019-03-05T23:36:51.818Z,76.70
2019-03-05T23:39:20.931Z,76.30
2019-03-05T23:41:50.149Z,77.00
2019-03-05T23:44:20.962Z,77.40
2019-03-05T23:46:50.050Z,78.00
2019-03-05T23:49:19.107Z,77.90
2019-03-05T23:51:48.257Z,77.70
2019-03-05T23:54:17.421Z,78.80
2019-03-05T23:56:46.537Z,79.10
2019-03-05T23:59:16.317Z,79.30
